Time;durP1;ratioP1;P1;durP2;ratioP2;P2;SDS_P1;SDS_P2;PMS_P1;PMS_P2;Temp;Humidity;BMP_temperature;BMP_pressure;BME280_temperature;BME280_humidity;BME280_pressure;Samples;Min_cycle;Max_cycle;Signal;HPM_P1;HPM_P2
2021/08/08 00:00:45;;;;;;;;;2.67;1.33;;;;;26.42;42.21;100620.59;5014549;28;45715;-68
2021/08/08 00:03:10;;;;;;;;;1.00;1.00;;;;;26.51;41.82;100631.88;5013962;28;46263;-68
2021/08/08 00:05:35;;;;;;;;;1.00;1.00;;;;;26.49;42.03;100634.72;5014249;28;45322;-69
2021/08/08 00:08:00;;;;;;;;;2.00;0.75;;;;;26.48;41.90;100625.09;5014513;28;45351;-68
2021/08/08 00:10:26;;;;;;;;;0.67;0.67;;;;;26.50;42.07;100628.38;5014919;28;45406;-69
2021/08/08 00:12:51;;;;;;;;;1.67;0.00;;;;;26.51;42.04;100627.34;5014364;28;46045;-68
2021/08/08 00:15:17;;;;;;;;;1.33;0.33;;;;;26.51;42.02;100639.88;5015329;28;45557;-68
2021/08/08 00:17:43;;;;;;;;;1.67;1.00;;;;;26.51;41.85;100634.53;5017516;28;45298;-68
2021/08/08 00:20:09;;;;;;;;;0.67;0.33;;;;;26.46;42.06;100627.19;5018032;28;45325;-69
2021/08/08 00:22:35;;;;;;;;;1.00;1.00;;;;;26.50;42.10;100633.72;5017853;28;46167;-69
2021/08/08 00:25:04;;;;;;;;;1.00;1.00;;;;;26.49;42.11;100637.41;5017998;28;45490;-68
2021/08/08 00:27:30;;;;;;;;;1.67;1.00;;;;;26.50;41.86;100631.03;5017745;28;45453;-68
2021/08/08 00:29:55;;;;;;;;;1.00;1.00;;;;;26.49;42.22;100634.72;5017595;28;45509;-69
2021/08/08 00:32:23;;;;;;;;;1.67;0.33;;;;;26.50;42.10;100638.22;5017112;28;46064;-68
2021/08/08 00:34:48;;;;;;;;;2.00;1.00;;;;;26.49;42.18;100634.72;5017603;28;45401;-68
2021/08/08 00:37:13;;;;;;;;;1.00;1.00;;;;;26.50;42.04;100627.56;5018063;28;45356;-68
2021/08/08 00:39:39;;;;;;;;;1.00;0.33;;;;;26.49;41.97;100633.94;5017449;28;45363;-69
2021/08/08 00:42:04;;;;;;;;;1.67;1.00;;;;;26.49;42.14;100639.28;5017318;28;46099;-70
2021/08/08 00:44:29;;;;;;;;;0.00;0.00;;;;;26.48;42.13;100638.44;5017458;28;45421;-69
2021/08/08 00:46:55;;;;;;;;;1.00;1.00;;;;;26.49;41.89;100639.28;5017245;28;45861;-69
2021/08/08 00:49:20;;;;;;;;;1.00;1.00;;;;;26.47;42.35;100636.81;5017953;28;45564;-69
2021/08/08 00:51:46;;;;;;;;;2.00;1.00;;;;;26.48;41.85;100640.28;5017153;28;46047;-68
2021/08/08 00:54:12;;;;;;;;;1.00;1.00;;;;;26.48;41.72;100640.28;5017207;28;45503;-69
2021/08/08 00:56:38;;;;;;;;;0.00;0.00;;;;;26.41;42.12;100629.66;5016983;28;45460;-69
2021/08/08 00:59:04;;;;;;;;;0.00;0.00;;;;;26.48;42.06;100638.44;5017386;28;45353;-69
2021/08/08 01:01:35;;;;;;;;;1.00;1.00;;;;;26.49;42.01;100642.72;5016870;28;45649;-68
2021/08/08 01:04:01;;;;;;;;;0.00;0.00;;;;;26.47;42.26;100644.81;5017033;28;45228;-68
2021/08/08 01:06:34;;;;;;;;;1.00;1.00;;;;;26.47;42.11;100647.47;5017004;28;45362;-69
2021/08/08 01:09:05;;;;;;;;;1.00;1.00;;;;;26.20;41.89;100609.47;5017167;28;45348;-69
2021/08/08 01:11:32;;;;;;;;;2.00;2.00;;;;;26.47;42.16;100650.13;5016623;28;46282;-69
2021/08/08 01:13:59;;;;;;;;;0.67;0.67;;;;;26.47;41.77;100655.47;5016855;28;45290;-68
2021/08/08 01:16:26;;;;;;;;;2.25;1.00;;;;;26.47;41.85;100650.13;5016964;28;45331;-68
2021/08/08 01:18:53;;;;;;;;;1.00;1.00;;;;;26.47;41.92;100650.13;5016934;28;45347;-69
2021/08/08 01:21:22;;;;;;;;;0.67;0.67;;;;;26.47;41.85;100658.13;5016774;28;45482;-68
2021/08/08 01:23:56;;;;;;;;;1.50;1.50;;;;;26.46;42.09;100656.53;5016693;28;45392;-69
2021/08/08 01:26:23;;;;;;;;;2.33;1.00;;;;;26.39;41.71;100647.69;5016169;28;45317;-69
2021/08/08 01:28:49;;;;;;;;;0.33;0.33;;;;;26.40;42.08;100649.34;5016829;28;45184;-68
2021/08/08 01:31:14;;;;;;;;;2.00;1.00;;;;;26.46;41.77;100653.03;5016654;28;46077;-68
2021/08/08 01:33:39;;;;;;;;;2.25;0.50;;;;;26.46;41.96;100656.53;5016098;28;45434;-68
2021/08/08 01:36:05;;;;;;;;;1.50;1.00;;;;;26.47;41.86;100657.31;5016526;28;45458;-69
2021/08/08 01:38:36;;;;;;;;;0.00;0.00;;;;;26.47;42.04;100655.47;5016533;28;45501;-68
2021/08/08 01:41:02;;;;;;;;;0.00;0.00;;;;;26.47;41.83;100649.31;5016629;28;45469;-68
2021/08/08 01:43:33;;;;;;;;;2.00;1.00;;;;;26.46;41.72;100651.19;5016608;28;45334;-69
2021/08/08 01:46:03;;;;;;;;;2.25;1.75;;;;;26.46;41.59;100661.84;5015691;28;45374;-69
2021/08/08 01:48:31;;;;;;;;;1.33;1.00;;;;;26.46;41.98;100661.03;5016303;28;45212;-68
2021/08/08 01:50:58;;;;;;;;;1.00;1.00;;;;;26.45;41.55;100665.53;5016114;28;46236;-69
2021/08/08 01:53:25;;;;;;;;;3.00;0.00;;;;;26.45;42.22;100675.38;5016296;28;45436;-69
2021/08/08 01:55:50;;;;;;;;;1.00;1.00;;;;;26.45;42.21;100676.22;5016145;28;45472;-68
2021/08/08 01:58:16;;;;;;;;;0.00;0.00;;;;;26.41;41.57;100662.44;5016710;28;45500;-69
2021/08/08 02:00:41;;;;;;;;;2.00;1.00;;;;;26.46;42.15;100682.38;5015685;28;46322;-69
2021/08/08 02:03:09;;;;;;;;;2.25;1.00;;;;;26.45;41.67;100673.56;5016022;28;45319;-68
2021/08/08 02:05:34;;;;;;;;;0.33;0.33;;;;;26.38;41.69;100668.22;5016073;28;45353;-69
2021/08/08 02:08:00;;;;;;;;;1.50;1.50;;;;;26.46;41.96;100679.72;5016230;28;45423;-69
2021/08/08 02:10:25;;;;;;;;;1.33;0.33;;;;;26.45;41.91;100678.88;5016472;28;45459;-68
2021/08/08 02:12:50;;;;;;;;;0.75;0.75;;;;;26.46;42.01;100674.38;5016244;28;45374;-68
2021/08/08 02:15:16;;;;;;;;;1.00;1.00;;;;;26.45;42.20;100684.22;5015643;28;45445;-68
2021/08/08 02:17:42;;;;;;;;;3.00;2.00;;;;;26.44;41.80;100684.44;5015861;28;45333;-69
2021/08/08 02:20:10;;;;;;;;;1.00;1.00;;;;;26.42;41.88;100681.94;5016050;28;46343;-69
2021/08/08 02:22:36;;;;;;;;;2.00;1.00;;;;;26.44;41.90;100684.44;5015922;28;45626;-68
2021/08/08 02:25:02;;;;;;;;;0.00;0.00;;;;;26.42;42.04;100684.63;5016314;28;45287;-68
2021/08/08 02:27:28;;;;;;;;;2.67;1.00;;;;;26.43;41.89;100690.78;5007210;28;45733;-69
2021/08/08 02:29:53;;;;;;;;;1.00;1.00;;;;;26.41;41.87;100685.66;5015278;28;46320;-68
2021/08/08 02:32:18;;;;;;;;;0.00;0.00;;;;;26.43;41.87;100682.75;5015698;28;45529;-68
2021/08/08 02:34:44;;;;;;;;;1.00;1.00;;;;;26.41;42.03;100686.44;5015796;28;45324;-68
2021/08/08 02:37:10;;;;;;;;;0.00;0.00;;;;;26.40;41.81;100679.50;5015661;28;45453;-68
2021/08/08 02:39:35;;;;;;;;;2.50;0.75;;;;;26.45;41.99;100678.06;5015023;28;46296;-69
2021/08/08 02:42:01;;;;;;;;;2.00;1.00;;;;;26.44;41.92;100690.56;5015382;28;45252;-68
2021/08/08 02:44:26;;;;;;;;;2.00;2.00;;;;;26.40;41.68;100684.00;5015405;28;45265;-69
2021/08/08 02:46:52;;;;;;;;;1.00;1.00;;;;;26.40;41.54;100682.16;5015678;28;45489;-68
2021/08/08 02:49:17;;;;;;;;;0.00;0.00;;;;;26.43;41.94;100693.44;5015931;28;46473;-69
2021/08/08 02:51:43;;;;;;;;;1.25;1.00;;;;;26.36;42.14;100678.28;5015394;28;45442;-68
2021/08/08 02:54:10;;;;;;;;;2.50;1.00;;;;;26.44;41.89;100695.13;5015444;28;45444;-68
2021/08/08 02:56:35;;;;;;;;;3.00;1.50;;;;;26.38;41.86;100686.91;5014986;28;45571;-68
2021/08/08 02:59:00;;;;;;;;;1.00;1.00;;;;;26.43;41.80;100693.44;5014863;28;46965;-69
2021/08/08 03:01:26;;;;;;;;;0.00;0.00;;;;;26.44;41.65;100695.13;5015505;28;45561;-68
2021/08/08 03:03:51;;;;;;;;;0.00;0.00;;;;;26.45;41.81;100699.41;5015699;28;45537;-68
2021/08/08 03:06:18;;;;;;;;;1.00;1.00;;;;;26.44;41.81;100703.13;5014967;28;45461;-69
2021/08/08 03:08:44;;;;;;;;;1.00;1.00;;;;;26.45;42.13;100699.41;5014918;28;45335;-69
2021/08/08 03:11:12;;;;;;;;;0.00;0.00;;;;;26.43;41.74;100696.94;5015198;28;45421;-68
2021/08/08 03:13:38;;;;;;;;;1.00;1.00;;;;;26.43;41.78;100701.44;5014855;28;45386;-69
2021/08/08 03:16:03;;;;;;;;;0.50;0.50;;;;;26.40;41.69;100698.19;5015609;28;45280;-68
2021/08/08 03:18:29;;;;;;;;;0.00;0.00;;;;;26.42;41.89;100713.94;5014747;28;46088;-68
2021/08/08 03:20:54;;;;;;;;;1.00;1.00;;;;;26.38;41.90;100697.56;5015106;28;45433;-68
2021/08/08 03:23:20;;;;;;;;;1.33;1.00;;;;;26.37;41.57;100701.25;5015095;28;45462;-69
2021/08/08 03:25:46;;;;;;;;;2.00;1.00;;;;;26.42;42.21;100713.94;5015108;28;45355;-68
2021/08/08 03:28:11;;;;;;;;;1.00;1.00;;;;;26.35;41.58;100699.84;5015110;28;46051;-68
2021/08/08 03:30:37;;;;;;;;;1.67;0.00;;;;;26.36;41.68;100707.63;5014720;28;45265;-68
2021/08/08 03:33:03;;;;;;;;;0.33;0.33;;;;;26.32;41.89;100702.94;5014977;28;45289;-69
2021/08/08 03:35:28;;;;;;;;;0.00;0.00;;;;;26.40;41.52;100722.19;5014727;28;45294;-69
2021/08/08 03:37:53;;;;;;;;;0.33;0.33;;;;;26.40;41.83;100716.03;5014708;28;46319;-68
2021/08/08 03:40:19;;;;;;;;;0.50;0.50;;;;;26.40;41.70;100724.84;5015395;28;45403;-69
2021/08/08 03:42:44;;;;;;;;;1.00;1.00;;;;;26.40;41.74;100714.19;5001023;28;45542;-68
2021/08/08 03:45:10;;;;;;;;;1.00;0.00;;;;;26.40;41.74;100716.84;5014779;28;45232;-68
2021/08/08 03:47:35;;;;;;;;;0.67;0.67;;;;;26.40;41.96;100716.03;5014590;28;45933;-68
2021/08/08 03:50:00;;;;;;;;;2.00;1.00;;;;;26.40;41.75;100721.34;5016993;28;45196;-69
2021/08/08 03:52:26;;;;;;;;;1.00;1.00;;;;;26.40;41.97;100724.03;5018767;28;45330;-68
2021/08/08 03:54:51;;;;;;;;;2.00;0.67;;;;;26.38;41.63;100718.91;5018405;28;45231;-68
2021/08/08 03:57:16;;;;;;;;;1.00;1.00;;;;;26.39;41.82;100722.38;5017173;28;55395;-68
2021/08/08 03:59:42;;;;;;;;;1.33;0.00;;;;;26.40;41.98;100721.34;5018036;28;45398;-69
2021/08/08 04:02:07;;;;;;;;;0.67;0.67;;;;;26.39;41.69;100717.03;5018345;28;45639;-69
2021/08/08 04:04:32;;;;;;;;;0.00;0.00;;;;;26.39;41.34;100733.88;5018344;28;45711;-69
2021/08/08 04:06:58;;;;;;;;;1.25;1.25;;;;;26.39;41.61;100728.53;5016255;28;46736;-69
2021/08/08 04:09:23;;;;;;;;;1.33;1.00;;;;;26.39;41.59;100730.38;5017767;28;45383;-68
2021/08/08 04:11:48;;;;;;;;;1.00;0.00;;;;;26.32;41.58;100716.25;5017579;28;45348;-69
2021/08/08 04:14:14;;;;;;;;;1.33;1.00;;;;;26.22;41.52;100703.38;5017919;28;45444;-68
2021/08/08 04:16:39;;;;;;;;;0.33;0.33;;;;;26.40;41.67;100742.69;5017992;28;45903;-69
2021/08/08 04:19:05;;;;;;;;;4.00;1.50;;;;;26.39;41.65;100741.03;5016075;28;45378;-68
2021/08/08 04:21:30;;;;;;;;;0.67;0.33;;;;;26.40;41.53;100737.34;5018035;28;45299;-68
2021/08/08 04:23:55;;;;;;;;;1.00;1.00;;;;;26.39;41.69;100741.03;5017726;28;45351;-69
2021/08/08 04:26:21;;;;;;;;;1.00;1.00;;;;;26.39;41.60;100735.72;5017031;28;47261;-68
2021/08/08 04:28:46;;;;;;;;;2.00;1.00;;;;;26.39;41.60;100741.88;5017752;28;45505;-68
2021/08/08 04:31:11;;;;;;;;;2.00;0.00;;;;;26.38;41.89;100734.91;5018445;28;45287;-69
2021/08/08 04:33:38;;;;;;;;;1.33;0.00;;;;;26.40;41.70;100751.53;5017642;28;45486;-68
2021/08/08 04:36:04;;;;;;;;;0.00;0.00;;;;;26.39;41.56;100749.03;5017394;28;45432;-69
2021/08/08 04:38:30;;;;;;;;;2.00;0.67;;;;;26.38;41.41;100750.91;5017218;28;45444;-69
2021/08/08 04:40:56;;;;;;;;;1.00;1.00;;;;;26.38;41.60;100744.75;5017318;28;45395;-68
2021/08/08 04:43:21;;;;;;;;;1.00;1.00;;;;;26.38;41.73;100755.44;5013848;28;45459;-69
2021/08/08 04:45:47;;;;;;;;;0.50;0.50;;;;;26.38;41.77;100761.59;5017165;28;46189;-68
2021/08/08 04:48:12;;;;;;;;;0.75;0.50;;;;;26.38;41.73;100758.91;5003750;28;45359;-68
2021/08/08 04:50:37;;;;;;;;;0.50;0.50;;;;;26.33;41.42;100750.75;5017215;28;45374;-68
2021/08/08 04:53:03;;;;;;;;;2.33;1.00;;;;;26.37;41.56;100759.94;5017522;28;45593;-68
2021/08/08 04:55:28;;;;;;;;;1.00;1.00;;;;;26.37;41.61;100754.59;5016960;28;46134;-69
2021/08/08 04:57:53;;;;;;;;;1.00;1.00;;;;;26.37;41.58;100757.28;5017539;28;45474;-68
2021/08/08 05:00:19;;;;;;;;;1.00;1.00;;;;;26.38;41.71;100761.59;5016685;28;45569;-69
2021/08/08 05:02:46;;;;;;;;;1.00;1.00;;;;;26.34;41.96;100756.88;5016946;28;45501;-68
2021/08/08 05:05:12;;;;;;;;;1.50;0.00;;;;;26.33;41.66;100756.06;5017201;28;47271;-68
2021/08/08 05:07:41;;;;;;;;;1.67;1.67;;;;;26.38;41.67;100763.44;5016965;28;45228;-70
2021/08/08 05:10:11;;;;;;;;;0.00;0.00;;;;;26.34;41.64;100759.53;5015570;28;45332;-68
2021/08/08 05:12:38;;;;;;;;;1.00;1.00;;;;;26.29;41.46;100745.00;5016807;28;45588;-68
2021/08/08 05:15:04;;;;;;;;;2.00;0.00;;;;;26.35;41.53;100756.66;5016725;28;45388;-69
2021/08/08 05:17:30;;;;;;;;;1.33;1.00;;;;;26.33;41.51;100755.25;5016565;28;45437;-68
2021/08/08 05:19:55;;;;;;;;;2.00;1.00;;;;;26.37;41.46;100764.44;5017203;28;45663;-69
2021/08/08 05:22:20;;;;;;;;;1.00;0.33;;;;;26.33;41.75;100756.06;5017139;28;45614;-69
2021/08/08 05:24:45;;;;;;;;;1.00;1.00;;;;;26.36;41.82;100763.63;5016545;28;46292;-68
2021/08/08 05:27:11;;;;;;;;;0.00;0.00;;;;;26.36;41.62;100760.97;5016665;28;45430;-68
2021/08/08 05:29:36;;;;;;;;;1.00;0.00;;;;;26.37;41.63;100762.59;5016786;28;45496;-69
2021/08/08 05:32:02;;;;;;;;;0.67;0.67;;;;;26.37;41.42;100765.28;5016785;28;45335;-69
2021/08/08 05:34:27;;;;;;;;;2.67;2.00;;;;;26.37;41.57;100769.78;5016975;28;47304;-69
2021/08/08 05:36:53;;;;;;;;;0.33;0.33;;;;;26.36;41.10;100762.84;5016338;28;45334;-68
2021/08/08 05:39:18;;;;;;;;;1.00;1.00;;;;;26.37;41.61;100769.78;5016516;28;45274;-69
2021/08/08 05:41:43;;;;;;;;;1.00;1.00;;;;;26.37;41.68;100764.44;5016610;28;45433;-68
2021/08/08 05:44:09;;;;;;;;;0.33;0.33;;;;;26.37;41.68;100769.78;5016535;28;45372;-68
2021/08/08 05:46:34;;;;;;;;;0.33;0.33;;;;;26.36;41.12;100766.28;5016653;28;45347;-68
2021/08/08 05:48:59;;;;;;;;;0.00;0.00;;;;;26.35;41.40;100759.34;5016932;28;45441;-68
2021/08/08 05:51:25;;;;;;;;;0.00;0.00;;;;;26.37;41.54;100767.13;5015959;28;45323;-69
2021/08/08 05:53:50;;;;;;;;;1.75;0.00;;;;;26.38;41.50;100768.75;5016413;28;45362;-69
2021/08/08 05:56:15;;;;;;;;;0.00;0.00;;;;;26.32;41.73;100761.59;5016008;28;45252;-69
2021/08/08 05:58:41;;;;;;;;;1.00;1.00;;;;;26.37;41.46;100770.59;5016514;28;46027;-68
2021/08/08 06:01:06;;;;;;;;;0.67;0.67;;;;;26.37;41.18;100775.13;5016949;28;45387;-68
2021/08/08 06:03:31;;;;;;;;;0.00;0.00;;;;;26.37;41.53;100775.94;5016132;28;46079;-68
2021/08/08 06:05:57;;;;;;;;;2.00;0.33;;;;;26.35;41.50;100775.34;5015721;28;45614;-68
2021/08/08 06:08:22;;;;;;;;;3.00;0.00;;;;;26.35;41.63;100791.34;5016257;28;45564;-68
2021/08/08 06:10:48;;;;;;;;;0.00;0.00;;;;;26.37;41.47;100793.78;5016225;28;45288;-68
2021/08/08 06:13:13;;;;;;;;;2.00;1.00;;;;;26.36;41.08;100789.50;5016481;28;46098;-68
2021/08/08 06:15:38;;;;;;;;;1.00;1.00;;;;;26.31;41.57;100773.31;5015636;28;45482;-68
2021/08/08 06:18:04;;;;;;;;;1.00;1.00;;;;;26.35;41.32;100788.69;5015864;28;45533;-68
2021/08/08 06:20:29;;;;;;;;;2.67;1.00;;;;;26.27;41.23;100773.72;5015696;28;45214;-68
2021/08/08 06:22:55;;;;;;;;;2.00;0.50;;;;;26.36;41.29;100789.50;5015997;28;47301;-68
2021/08/08 06:25:20;;;;;;;;;1.00;1.00;;;;;26.35;41.43;100793.19;5016420;28;45223;-70
2021/08/08 06:27:46;;;;;;;;;2.00;1.33;;;;;26.34;41.48;100792.38;5015874;28;45414;-68
2021/08/08 06:30:12;;;;;;;;;0.00;0.00;;;;;26.33;41.55;100796.06;5015765;28;45450;-69
2021/08/08 06:32:37;;;;;;;;;0.00;0.00;;;;;26.32;41.66;100796.28;5015539;28;46188;-69
2021/08/08 06:35:04;;;;;;;;;1.00;1.00;;;;;26.33;41.50;100795.25;5014810;28;45443;-68
2021/08/08 06:37:29;;;;;;;;;2.00;1.00;;;;;26.32;41.46;100797.09;5015991;28;45315;-70
2021/08/08 06:39:54;;;;;;;;;3.00;2.00;;;;;26.26;41.84;100796.09;5015845;28;45315;-69
2021/08/08 06:42:20;;;;;;;;;1.00;1.00;;;;;26.31;41.33;100802.66;5015452;28;45536;-69
2021/08/08 06:44:45;;;;;;;;;1.00;1.00;;;;;26.31;41.63;100805.31;5015452;28;45385;-68
2021/08/08 06:47:10;;;;;;;;;0.33;0.33;;;;;26.32;41.45;100807.75;5015755;28;45600;-68
2021/08/08 06:49:35;;;;;;;;;1.00;1.00;;;;;26.31;41.38;100808.78;5014082;28;45466;-68
2021/08/08 06:52:01;;;;;;;;;1.00;1.00;;;;;26.32;41.46;100805.09;5015685;28;46190;-70
2021/08/08 06:54:26;;;;;;;;;2.00;2.00;;;;;26.34;41.63;100802.22;5015112;28;46310;-69
2021/08/08 06:56:51;;;;;;;;;1.67;1.67;;;;;26.26;41.39;100792.59;5015413;28;45454;-69
2021/08/08 06:59:17;;;;;;;;;1.33;1.33;;;;;26.33;41.65;100801.41;5015358;28;45494;-70
2021/08/08 07:01:42;;;;;;;;;2.67;1.00;;;;;26.35;41.46;100803.84;5015277;28;46769;-70
2021/08/08 07:04:08;;;;;;;;;4.00;1.00;;;;;26.29;41.28;100801.00;5015499;28;45370;-69
2021/08/08 07:06:33;;;;;;;;;1.67;1.67;;;;;26.34;41.36;100808.38;5015166;28;45422;-69
2021/08/08 07:08:59;;;;;;;;;1.00;1.00;;;;;26.34;41.35;100819.03;5015226;28;45488;-70
2021/08/08 07:11:26;;;;;;;;;1.00;1.00;;;;;26.35;41.13;100817.19;5015025;28;47204;-70
2021/08/08 07:13:51;;;;;;;;;1.33;1.33;;;;;26.35;41.68;100819.84;5015234;28;45225;-69
2021/08/08 07:16:17;;;;;;;;;0.25;0.25;;;;;26.35;41.13;100815.34;5015735;28;45469;-69
2021/08/08 07:18:43;;;;;;;;;0.00;0.00;;;;;26.36;41.26;100827.63;5014642;28;45406;-69
2021/08/08 07:21:09;;;;;;;;;1.33;1.33;;;;;26.34;41.45;100826.22;5015046;28;47176;-70
2021/08/08 07:23:34;;;;;;;;;1.00;1.00;;;;;26.35;41.28;100831.34;5014260;28;45545;-70
2021/08/08 07:25:59;;;;;;;;;2.00;1.00;;;;;26.31;41.38;100822.13;5015036;28;45399;-70
2021/08/08 07:28:25;;;;;;;;;0.67;0.67;;;;;26.34;41.39;100835.03;5015639;28;45377;-69
2021/08/08 07:30:50;;;;;;;;;1.00;1.00;;;;;26.21;41.47;100814.56;5014539;28;46168;-69
2021/08/08 07:33:16;;;;;;;;;1.00;1.00;;;;;26.34;41.36;100831.53;5014349;28;45474;-70
2021/08/08 07:35:41;;;;;;;;;0.33;0.33;;;;;26.35;41.42;100841.19;5014863;28;45489;-69
2021/08/08 07:38:08;;;;;;;;;1.00;1.00;;;;;26.32;41.75;100836.28;5014843;28;47349;-70
2021/08/08 07:40:33;;;;;;;;;2.00;2.00;;;;;26.34;41.50;100837.69;5014793;28;47048;-70
2021/08/08 07:42:59;;;;;;;;;1.00;1.00;;;;;26.31;41.57;100840.78;5015044;28;45403;-70
2021/08/08 07:45:25;;;;;;;;;1.00;1.00;;;;;26.34;41.39;100840.38;5014742;28;45283;-69
2021/08/08 07:47:50;;;;;;;;;0.67;0.67;;;;;25.89;41.11;100777.13;5014505;28;45296;-69
2021/08/08 07:50:16;;;;;;;;;1.00;1.00;;;;;26.34;41.54;100843.03;5014526;28;46444;-69
2021/08/08 07:52:42;;;;;;;;;1.00;1.00;;;;;26.24;41.42;100832.81;5014693;28;45453;-70
2021/08/08 07:55:08;;;;;;;;;0.00;0.00;;;;;26.34;41.27;100845.69;5015038;28;45339;-68
2021/08/08 07:57:34;;;;;;;;;0.00;0.00;;;;;26.34;41.35;100843.03;5014400;28;45605;-68
2021/08/08 07:59:59;;;;;;;;;4.00;1.00;;;;;26.25;41.54;100841.63;5014274;28;45355;-68
2021/08/08 08:02:25;;;;;;;;;1.00;1.00;;;;;26.29;41.81;100842.84;5014102;28;45526;-69
2021/08/08 08:04:50;;;;;;;;;1.00;0.00;;;;;26.33;41.37;100852.09;5014660;28;45505;-69
2021/08/08 08:07:16;;;;;;;;;1.00;1.00;;;;;26.31;41.42;100848.00;5015018;28;45468;-69
2021/08/08 08:09:41;;;;;;;;;0.00;0.00;;;;;26.32;41.45;100857.63;5014195;28;47070;-68
2021/08/08 08:12:07;;;;;;;;;1.00;0.00;;;;;26.33;41.40;100864.59;5014265;28;45733;-68
2021/08/08 08:14:32;;;;;;;;;1.00;1.00;;;;;26.33;41.54;100861.94;5014215;28;45509;-67
2021/08/08 08:16:58;;;;;;;;;2.00;1.00;;;;;26.34;41.42;100866.22;5014015;28;45521;-70
2021/08/08 08:19:23;;;;;;;;;1.75;0.50;;;;;26.35;41.35;100867.88;5015030;28;45936;-70
2021/08/08 08:21:48;;;;;;;;;1.00;1.00;;;;;26.35;41.31;100866.03;5014178;28;45344;-69
2021/08/08 08:24:15;;;;;;;;;1.33;1.00;;;;;26.36;41.55;100870.31;5014174;28;45292;-67
2021/08/08 08:26:40;;;;;;;;;1.00;1.00;;;;;26.36;41.19;100867.66;5014119;28;45288;-70
2021/08/08 08:29:06;;;;;;;;;1.00;0.00;;;;;26.36;41.07;100872.97;5014091;28;46019;-69
2021/08/08 08:31:32;;;;;;;;;1.33;1.00;;;;;26.32;41.43;100877.09;5014055;28;45397;-69
2021/08/08 08:33:58;;;;;;;;;0.00;0.00;;;;;26.36;41.43;100886.31;5013588;28;45387;-70
2021/08/08 08:36:23;;;;;;;;;1.00;1.00;;;;;26.36;41.49;100880.97;5001840;28;45478;-69
2021/08/08 08:38:48;;;;;;;;;3.00;1.00;;;;;26.37;41.24;100884.47;5017183;28;47140;-69
2021/08/08 08:41:15;;;;;;;;;2.33;1.67;;;;;26.37;41.43;100885.31;5017523;28;45457;-69
2021/08/08 08:43:43;;;;;;;;;0.00;0.00;;;;;26.38;41.42;100883.47;5017547;28;45307;-69
2021/08/08 08:46:10;;;;;;;;;1.00;0.00;;;;;26.38;41.10;100894.94;5017639;28;45566;-69
2021/08/08 08:48:37;;;;;;;;;0.75;0.75;;;;;26.39;41.31;100885.91;5017051;28;46091;-69
2021/08/08 08:51:04;;;;;;;;;1.00;1.00;;;;;26.38;41.10;100894.94;5017212;28;45678;-69
2021/08/08 08:53:31;;;;;;;;;1.00;1.00;;;;;26.38;41.08;100886.94;5017230;28;45451;-69
2021/08/08 08:56:01;;;;;;;;;1.67;1.00;;;;;26.39;41.29;100888.56;5017167;28;45363;-69
2021/08/08 08:58:26;;;;;;;;;2.50;1.50;;;;;26.39;41.59;100888.56;5013719;28;45398;-69
2021/08/08 09:00:52;;;;;;;;;1.75;1.00;;;;;26.40;41.12;100892.06;5003287;28;45489;-69
2021/08/08 09:03:17;;;;;;;;;1.00;1.00;;;;;26.40;41.17;100892.88;5017001;28;45598;-69
2021/08/08 09:05:42;;;;;;;;;1.00;1.00;;;;;26.36;41.28;100899.66;5017090;28;45358;-69
2021/08/08 09:08:08;;;;;;;;;1.00;1.00;;;;;26.40;41.44;100898.22;5017035;28;45419;-69
2021/08/08 09:10:33;;;;;;;;;3.33;1.00;;;;;26.39;41.27;100898.41;5017181;28;45422;-70
2021/08/08 09:13:01;;;;;;;;;0.33;0.33;;;;;26.37;41.20;100895.97;5017480;28;45490;-69
2021/08/08 09:15:39;;;;;;;;;2.00;0.25;;;;;26.39;41.55;100909.91;5016502;28;45410;-69
2021/08/08 09:18:15;;;;;;;;;1.25;0.50;;;;;26.39;41.25;100909.09;5016493;28;46117;-69
2021/08/08 09:20:41;;;;;;;;;1.50;0.00;;;;;26.39;41.29;100915.25;5016731;28;45505;-69
2021/08/08 09:23:07;;;;;;;;;2.00;0.00;;;;;26.27;41.36;100892.91;5017018;28;45463;-69
2021/08/08 09:25:32;;;;;;;;;1.00;1.00;;;;;26.38;40.91;100913.63;5016905;28;45505;-69
2021/08/08 09:28:10;;;;;;;;;2.00;1.00;;;;;26.38;41.33;100916.28;5016896;28;46217;-69
2021/08/08 09:30:40;;;;;;;;;1.00;1.00;;;;;26.39;41.23;100919.75;5016168;28;45318;-69
2021/08/08 09:33:08;;;;;;;;;0.00;0.00;;;;;26.39;41.29;100919.75;5016731;28;45228;-69
2021/08/08 09:35:39;;;;;;;;;1.00;0.67;;;;;26.39;41.16;100920.59;5016520;28;45481;-69
2021/08/08 09:38:09;;;;;;;;;2.33;2.00;;;;;26.16;40.94;100892.53;5016370;28;46127;-69
2021/08/08 09:40:37;;;;;;;;;1.00;1.00;;;;;26.30;41.04;100919.19;5016580;28;45335;-69
2021/08/08 09:43:07;;;;;;;;;1.50;1.50;;;;;26.37;41.30;100927.97;5016936;28;45343;-69
2021/08/08 09:45:35;;;;;;;;;1.00;1.00;;;;;26.38;41.11;100926.13;5015965;28;45558;-69
2021/08/08 09:48:00;;;;;;;;;1.00;1.00;;;;;26.35;41.11;100923.88;5015828;28;45979;-69
2021/08/08 09:50:28;;;;;;;;;1.75;1.75;;;;;26.38;41.17;100928.81;5016224;28;45466;-69
2021/08/08 09:53:03;;;;;;;;;1.00;1.00;;;;;26.38;40.97;100932.28;5000679;28;45362;-69
2021/08/08 09:55:31;;;;;;;;;1.00;1.00;;;;;26.36;41.42;100928.19;5013061;28;45436;-69
2021/08/08 09:57:58;;;;;;;;;1.00;1.00;;;;;26.33;41.37;100923.28;5015651;28;45197;-69
2021/08/08 10:00:30;;;;;;;;;1.00;1.00;;;;;26.40;40.90;100938.25;5015962;28;45527;-69
2021/08/08 10:02:57;;;;;;;;;1.00;0.25;;;;;26.40;40.98;100935.56;5016156;28;47427;-69
2021/08/08 10:05:26;;;;;;;;;0.75;0.75;;;;;26.41;40.94;100945.19;5015950;28;45557;-69
2021/08/08 10:07:53;;;;;;;;;2.00;2.00;;;;;26.41;41.04;100949.72;5015939;28;47226;-70
2021/08/08 10:10:19;;;;;;;;;2.75;2.75;;;;;26.32;40.81;100937.63;5016548;28;45392;-69
2021/08/08 10:12:47;;;;;;;;;2.00;1.00;;;;;26.41;41.18;100952.41;5015607;28;45378;-69
2021/08/08 10:15:13;;;;;;;;;2.00;1.00;;;;;26.41;41.14;100955.06;5015914;28;45513;-69
2021/08/08 10:17:42;;;;;;;;;4.00;0.33;;;;;26.43;40.71;100957.53;5015595;28;45588;-69
2021/08/08 10:20:08;;;;;;;;;1.00;1.00;;;;;26.35;40.82;100950.56;5016066;28;45498;-69
2021/08/08 10:22:37;;;;;;;;;1.00;1.00;;;;;26.36;40.77;100947.66;5016028;28;45237;-69
2021/08/08 10:25:02;;;;;;;;;1.00;1.00;;;;;26.38;40.87;100958.97;5016219;28;45570;-69
2021/08/08 10:27:30;;;;;;;;;1.00;1.00;;;;;26.43;41.15;100958.34;5015104;28;46385;-69
2021/08/08 10:29:58;;;;;;;;;0.33;0.33;;;;;26.44;41.15;100961.88;5015685;28;45351;-69
2021/08/08 10:32:25;;;;;;;;;4.00;0.75;;;;;26.43;40.85;100960.19;5015806;28;45594;-69
2021/08/08 10:34:50;;;;;;;;;2.00;2.00;;;;;26.13;40.89;100911.59;5015764;28;45468;-69
2021/08/08 10:37:16;;;;;;;;;2.00;1.00;;;;;26.43;41.00;100961.00;5016033;28;46193;-69
2021/08/08 10:39:47;;;;;;;;;1.75;1.75;;;;;26.39;41.09;100957.94;5015468;28;45410;-69
2021/08/08 10:42:13;;;;;;;;;1.00;1.00;;;;;26.36;40.83;100953.00;5015265;28;45414;-69
2021/08/08 10:44:53;;;;;;;;;0.75;0.75;;;;;26.43;40.99;100968.19;5015440;28;45531;-69
2021/08/08 10:47:27;;;;;;;;;1.00;1.00;;;;;26.43;41.03;100963.69;5015583;28;46117;-69
2021/08/08 10:49:54;;;;;;;;;3.25;1.50;;;;;26.38;40.82;100958.16;5015450;28;45421;-69
2021/08/08 10:52:19;;;;;;;;;1.00;1.00;;;;;26.39;40.72;100960.59;5015980;28;45414;-69
2021/08/08 10:54:52;;;;;;;;;1.00;1.00;;;;;26.43;41.04;100970.84;5015037;28;45335;-69
2021/08/08 10:57:19;;;;;;;;;1.00;1.00;;;;;26.15;40.99;100927.41;5014729;28;47331;-69
2021/08/08 10:59:47;;;;;;;;;2.00;0.00;;;;;26.43;41.02;100969.00;5014320;28;45456;-69
2021/08/08 11:02:14;;;;;;;;;1.00;1.00;;;;;26.43;40.99;100966.34;5015310;28;45367;-69
2021/08/08 11:04:40;;;;;;;;;1.00;1.00;;;;;26.43;40.78;100966.34;5015250;28;45296;-69
2021/08/08 11:07:06;;;;;;;;;1.00;1.00;;;;;26.35;41.41;100959.38;5015596;28;46360;-69
2021/08/08 11:09:34;;;;;;;;;1.00;1.00;;;;;26.43;41.09;100968.19;5014980;28;45421;-69
2021/08/08 11:12:00;;;;;;;;;1.75;1.75;;;;;26.40;40.94;100959.56;5014674;28;45442;-70
2021/08/08 11:14:26;;;;;;;;;1.00;1.00;;;;;26.41;40.85;100963.06;5014962;28;45486;-69
2021/08/08 11:17:04;;;;;;;;;2.00;2.00;;;;;26.42;40.94;100959.34;5014883;28;46290;-69
2021/08/08 11:19:38;;;;;;;;;4.75;2.00;;;;;26.43;40.94;100969.00;5011862;28;45548;-70